createdAt,value
2019-05-26T00:02:21.705Z,27.10
2019-05-26T00:07:30.687Z,27.10
2019-05-26T00:12:35.107Z,27.00
2019-05-26T00:17:41.380Z,27.00
2019-05-26T00:22:47.265Z,27.00
2019-05-26T00:27:52.963Z,27.00
2019-05-26T00:32:58.999Z,27.00
2019-05-26T00:38:04.981Z,27.00
2019-05-26T00:43:10.836Z,27.00
2019-05-26T00:48:16.609Z,26.90
2019-05-26T00:53:23.517Z,26.80
2019-05-26T00:58:29.373Z,26.70
2019-05-26T01:03:35.866Z,26.70
2019-05-26T01:08:41.839Z,26.60
2019-05-26T01:13:48.688Z,26.50
2019-05-26T01:18:54.481Z,26.50
2019-05-26T01:24:00.510Z,26.40
2019-05-26T01:29:06.589Z,26.40
2019-05-26T01:34:12.292Z,26.40
2019-05-26T01:39:18.637Z,26.40
2019-05-26T01:44:24.477Z,26.40
2019-05-26T01:49:30.098Z,26.40
2019-05-26T01:54:35.781Z,26.40
2019-05-26T01:59:41.874Z,26.40
2019-05-26T02:04:47.498Z,26.40
2019-05-26T02:09:53.327Z,26.40
2019-05-26T02:15:00.249Z,26.40
2019-05-26T02:20:07.141Z,26.40
2019-05-26T02:25:13.231Z,26.40
2019-05-26T02:30:18.971Z,26.40
2019-05-26T02:35:25.020Z,26.40
2019-05-26T02:40:31.029Z,26.40
2019-05-26T02:45:36.826Z,26.40
2019-05-26T02:50:42.775Z,26.30
2019-05-26T02:55:48.715Z,26.30
2019-05-26T03:00:54.405Z,26.30
2019-05-26T03:06:00.382Z,26.30
2019-05-26T03:11:07.691Z,26.30
2019-05-26T03:16:14.034Z,26.30
2019-05-26T03:21:20.871Z,26.30
2019-05-26T03:26:29.919Z,26.30
2019-05-26T03:31:35.909Z,26.30
2019-05-26T03:36:41.758Z,26.30
2019-05-26T03:41:47.493Z,26.30
2019-05-26T03:46:53.431Z,26.20
2019-05-26T03:51:59.475Z,26.20
2019-05-26T03:57:05.288Z,26.20
2019-05-26T04:02:11.056Z,26.20
2019-05-26T04:07:16.794Z,26.20
2019-05-26T04:12:22.679Z,26.20
2019-05-26T04:17:28.378Z,26.20
2019-05-26T04:22:34.326Z,26.20
2019-05-26T04:27:40.485Z,26.20
2019-05-26T04:32:45.972Z,26.20
2019-05-26T04:37:51.625Z,26.20
2019-05-26T04:42:57.257Z,26.20
2019-05-26T04:48:02.895Z,26.20
2019-05-26T04:53:09.618Z,26.10
2019-05-26T04:58:15.450Z,26.10
2019-05-26T05:03:21.381Z,26.20
2019-05-26T05:08:27.049Z,26.10
2019-05-26T05:13:33.921Z,26.20
2019-05-26T05:18:39.821Z,26.20
2019-05-26T05:23:45.493Z,26.20
2019-05-26T05:28:51.249Z,26.30
2019-05-26T05:33:56.988Z,26.30
2019-05-26T05:39:02.817Z,26.30
2019-05-26T05:44:08.668Z,26.30
2019-05-26T05:49:14.368Z,26.30
2019-05-26T05:54:19.899Z,26.30
2019-05-26T05:59:26.091Z,26.30
2019-05-26T06:04:32.980Z,26.30
2019-05-26T06:09:38.788Z,26.30
2019-05-26T06:14:45.533Z,26.30
2019-05-26T06:19:51.335Z,26.30
2019-05-26T06:24:58.449Z,26.40
2019-05-26T06:30:04.921Z,26.40
2019-05-26T06:35:12.557Z,26.50
2019-05-26T06:40:19.265Z,26.50
2019-05-26T06:45:26.445Z,26.60
2019-05-26T06:50:32.276Z,26.70
2019-05-26T06:55:37.945Z,26.70
2019-05-26T07:00:43.599Z,26.70
2019-05-26T07:05:49.262Z,26.70
2019-05-26T07:10:55.097Z,26.80
2019-05-26T07:16:00.619Z,26.80
2019-05-26T07:21:06.137Z,26.90
2019-05-26T07:26:11.631Z,27.00
2019-05-26T07:31:17.169Z,27.20
2019-05-26T07:36:22.714Z,27.30
2019-05-26T07:41:28.177Z,27.40
2019-05-26T07:46:33.627Z,27.50
2019-05-26T07:51:39.254Z,27.60
2019-05-26T07:56:44.924Z,27.70
2019-05-26T08:01:50.394Z,27.80
2019-05-26T08:06:55.915Z,28.00
2019-05-26T08:12:02.476Z,28.10
2019-05-26T08:17:08.042Z,28.20
2019-05-26T08:22:14.706Z,28.30
2019-05-26T08:27:20.166Z,28.30
2019-05-26T08:32:25.762Z,28.40
2019-05-26T08:37:31.348Z,28.50
2019-05-26T08:42:44.428Z,28.60
2019-05-26T08:47:44.065Z,28.80
2019-05-26T08:52:49.591Z,28.90
2019-05-26T08:57:55.225Z,29.10
2019-05-26T09:03:00.760Z,29.20
2019-05-26T09:08:08.223Z,29.40
2019-05-26T09:13:13.505Z,29.60
2019-05-26T09:18:19.136Z,29.70
2019-05-26T09:23:24.685Z,29.90
2019-05-26T09:28:30.262Z,30.10
2019-05-26T09:33:35.918Z,30.20
2019-05-26T09:38:41.477Z,30.30
2019-05-26T09:43:47.096Z,30.40
2019-05-26T09:48:52.661Z,30.50
2019-05-26T09:54:01.911Z,30.70
2019-05-26T09:59:05.266Z,30.80
2019-05-26T10:04:10.777Z,30.90
2019-05-26T10:09:16.467Z,31.10
2019-05-26T10:14:22.010Z,31.20
2019-05-26T10:19:27.461Z,31.50
2019-05-26T10:24:32.925Z,31.60
2019-05-26T10:29:38.955Z,31.80
2019-05-26T10:34:44.448Z,31.90
2019-05-26T10:39:49.877Z,32.00
2019-05-26T10:44:55.373Z,32.20
2019-05-26T10:50:04.619Z,32.30
2019-05-26T10:55:10.237Z,32.50
2019-05-26T11:00:18.310Z,32.70
2019-05-26T11:05:25.510Z,32.90
2019-05-26T11:10:31.007Z,33.00
2019-05-26T11:15:36.487Z,33.10
2019-05-26T11:20:41.923Z,33.20
2019-05-26T11:25:48.389Z,33.40
2019-05-26T11:30:53.808Z,33.40
2019-05-26T11:35:59.346Z,33.60
2019-05-26T11:41:05.041Z,33.70
2019-05-26T11:46:10.619Z,33.80
2019-05-26T11:51:16.241Z,34.00
2019-05-26T11:56:21.832Z,34.20
2019-05-26T12:01:27.412Z,34.30
2019-05-26T12:06:32.872Z,34.40
2019-05-26T12:11:38.380Z,34.50
2019-05-26T12:16:43.921Z,34.70
2019-05-26T12:21:49.456Z,34.80
2019-05-26T12:26:55.541Z,34.90
2019-05-26T12:32:01.191Z,35.00
2019-05-26T12:37:07.018Z,35.10
2019-05-26T12:42:12.710Z,35.20
2019-05-26T12:47:18.173Z,35.20
2019-05-26T12:52:23.917Z,35.10
2019-05-26T12:57:29.421Z,35.00
2019-05-26T13:02:36.638Z,34.80
2019-05-26T13:07:42.132Z,34.70
2019-05-26T13:12:47.590Z,34.60
2019-05-26T13:17:53.297Z,34.50
2019-05-26T13:22:59.326Z,34.40
2019-05-26T13:28:05.092Z,34.40
2019-05-26T13:33:11.203Z,34.30
2019-05-26T13:38:16.924Z,34.20
2019-05-26T13:43:22.419Z,34.10
2019-05-26T13:48:27.949Z,34.00
2019-05-26T13:53:33.419Z,33.90
2019-05-26T13:58:38.965Z,33.70
2019-05-26T14:03:45.460Z,33.60
2019-05-26T14:08:50.961Z,33.40
2019-05-26T14:13:56.427Z,33.30
2019-05-26T14:19:04.290Z,33.10
2019-05-26T14:24:09.824Z,32.90
2019-05-26T14:29:15.282Z,32.70
2019-05-26T14:34:20.898Z,32.60
2019-05-26T14:39:26.524Z,32.50
2019-05-26T14:44:33.271Z,32.30
2019-05-26T14:49:38.714Z,32.10
2019-05-26T14:54:44.346Z,31.90
2019-05-26T14:59:50.119Z,31.80
2019-05-26T15:04:55.765Z,31.60
2019-05-26T15:10:01.190Z,31.40
2019-05-26T15:15:07.236Z,31.40
2019-05-26T15:20:13.438Z,31.20
2019-05-26T15:25:19.027Z,31.10
2019-05-26T15:30:25.091Z,31.00
2019-05-26T15:35:30.860Z,30.80
2019-05-26T15:40:36.587Z,30.80
2019-05-26T15:45:42.849Z,30.70
2019-05-26T15:50:48.647Z,30.70
2019-05-26T15:55:54.633Z,30.60
2019-05-26T16:01:00.535Z,30.60
2019-05-26T16:06:06.445Z,30.50
2019-05-26T16:11:12.452Z,30.40
2019-05-26T16:16:18.478Z,30.40
2019-05-26T16:21:28.141Z,30.30
2019-05-26T16:26:31.857Z,30.20
2019-05-26T16:31:37.456Z,30.10
2019-05-26T16:36:43.381Z,30.10
2019-05-26T16:41:49.370Z,30.00
2019-05-26T16:46:56.736Z,29.90
2019-05-26T16:52:04.791Z,29.80
2019-05-26T16:57:10.364Z,29.70
2019-05-26T17:02:16.131Z,29.60
2019-05-26T17:07:24.767Z,29.50
2019-05-26T17:12:30.544Z,29.30
2019-05-26T17:17:36.856Z,29.20
2019-05-26T17:22:51.707Z,29.10
2019-05-26T17:27:58.654Z,29.00
2019-05-26T17:33:04.389Z,28.80
2019-05-26T17:38:16.463Z,28.70
2019-05-26T17:43:27.257Z,28.70
2019-05-26T17:48:33.676Z,28.60
2019-05-26T17:53:55.165Z,28.50
2019-05-26T17:59:01.498Z,28.50
2019-05-26T18:04:07.520Z,28.40
2019-05-26T18:09:13.050Z,28.40
2019-05-26T18:14:19.334Z,28.40
2019-05-26T18:19:25.183Z,28.30
2019-05-26T18:24:30.780Z,28.30
2019-05-26T18:29:37.889Z,28.30
2019-05-26T18:34:43.819Z,28.30
2019-05-26T18:40:01.073Z,28.20
2019-05-26T18:45:07.266Z,28.10
2019-05-26T18:50:13.238Z,28.00
2019-05-26T20:09:09.339Z,27.20
2019-05-26T20:14:14.981Z,27.10
2019-05-26T20:19:22.858Z,27.10
2019-05-26T20:24:31.406Z,27.00
2019-05-26T20:29:39.618Z,27.00
2019-05-26T20:34:47.629Z,26.90
2019-05-26T20:39:57.199Z,26.90
2019-05-26T20:45:05.094Z,26.90
2019-05-26T20:50:28.142Z,26.80
2019-05-26T20:55:32.547Z,26.80
2019-05-26T21:00:41.618Z,26.80
2019-05-26T21:05:49.941Z,26.70
2019-05-26T21:10:59.423Z,26.70
2019-05-26T21:16:05.101Z,26.60
2019-05-26T21:21:10.993Z,26.60
2019-05-26T21:26:17.371Z,26.60
2019-05-26T21:31:23.139Z,26.50
2019-05-26T21:36:28.921Z,26.40
2019-05-26T21:41:34.592Z,26.40
2019-05-26T21:46:40.557Z,26.40
2019-05-26T21:51:46.437Z,26.30
2019-05-26T21:56:52.133Z,26.30
2019-05-26T22:01:59.139Z,26.30
2019-05-26T22:07:04.972Z,26.20
2019-05-26T22:12:10.795Z,26.20
2019-05-26T22:17:22.999Z,26.20
2019-05-26T22:22:29.880Z,26.10
2019-05-26T22:27:35.557Z,26.00
2019-05-26T22:32:41.268Z,26.00
2019-05-26T22:37:47.261Z,26.00
2019-05-26T22:42:52.977Z,26.00
2019-05-26T22:47:58.865Z,26.00
2019-05-26T22:53:04.993Z,25.90
2019-05-26T22:58:10.712Z,26.00
2019-05-26T23:03:16.316Z,25.90
2019-05-26T23:08:22.145Z,25.90
2019-05-26T23:13:28.010Z,25.90
2019-05-26T23:18:34.090Z,25.90
2019-05-26T23:23:39.750Z,25.80
2019-05-26T23:28:46.208Z,25.80
2019-05-26T23:33:52.073Z,25.80
2019-05-26T23:38:57.883Z,25.80
2019-05-26T23:44:03.537Z,25.70
2019-05-26T23:49:09.483Z,25.70
2019-05-26T23:54:15.156Z,25.70
2019-05-26T23:59:20.933Z,25.70
